Nearby METAR Reports

 

LGTS - THESALONIKI, GR
Distance from station: 85km
: 19/03/2019 19:20
Few Clouds
Few Clouds

: 11 km/h
: 16°C
: 13°C
: 83%
: 1016 hPa
Clouds: Few Clouds
Visibility: 10 km
Cloud details: Few Clouds 610 m
2019/03/19 17:20 LGTS 191720Z 16006KT 9999 FEW020 16/13 Q1016 NOSIG
LGAV - ATHENS, GR
Distance from station: 546km
: 19/03/2019 19:20
Few Clouds
Few Clouds

: 2 km/h
: 13°C
: 8°C
: 72%
: 1018 hPa
Clouds: Few Clouds
Visibility: 10 km
Cloud details: Few Clouds 914 m
2019/03/19 17:20 LGAV 191720Z 23001KT 9999 FEW030 13/08 Q1018 NOSIG
 
LGKZ - KOZANI, GR
Distance from station: 130km
: 19/03/2019 18:50


: 11 km/h
: 14°C
: 5°C
: 55%
: 1017 hPa
Clouds:
Visibility: 10 km
Cloud details: 914 m
2134 m
2019/03/19 16:50 LGKZ 191650Z 34006KT 9999 SCT030 SCT070 14/05 Q1017
LGIO - IOANNINA, GR
Distance from station: 265km
: 19/03/2019 13:50
NOT Current
Few Clouds
Few Clouds
   varies
: varies 0 km/h
: 18°C
: 6°C
: 46%
: 1016 hPa
Clouds: Few Clouds
Visibility: 10 km
Cloud details: Few Clouds 1067 m
2019/03/19 11:50 LGIO 191150Z /////KT 9999 FEW035 18/06 Q1016
 
LGKV - KABALA, GR
Distance from station: 220km
: 19/03/2019 19:20

   calm
:
: 15°C
: 11°C
: 77%
: 1017 hPa
Clouds:
Visibility: 10 km
Cloud details: 762 m
2019/03/19 17:20 LGKV 191720Z 00000KT 9999 SCT025 15/11 Q1017
LGAL - ALEXANDROUPOLI, GR
Distance from station: 367km
: 19/03/2019 19:20
Few Clouds
Few Clouds

: 7 km/h
: 14°C
: 10°C
: 77%
: 1017 hPa
Clouds: Few Clouds
Visibility: 10 km
Cloud details: Few Clouds 762 m
2019/03/19 17:20 LGAL 191720Z 29004KT 9999 FEW025 14/10 Q1017
 
LGSA - CHANIA,CRETE, GR
Distance from station: 866km
: 19/03/2019 19:20
Few Clouds
Few Clouds
   calm
:
: 14°C
: 12°C
: 88%
: 1017 hPa
Clouds: Few Clouds
Visibility: 10 km
Cloud details: Few Clouds 762 m
2019/03/19 17:20 LGSA 191720Z 00000KT 9999 FEW025 14/12 Q1017
LGIR - HERAKLIO, CRETE, GR
Distance from station: 882km
: 19/03/2019 19:20
Few Clouds
Few Clouds
   calm
:
: 14°C
: 12°C
: 88%
: 1017 hPa
Clouds: Few Clouds
Visibility: 10 km
Cloud details: Few Clouds 762 m
2019/03/19 17:20 LGIR 191720Z 00000KT 9999 FEW025 14/12 Q1017 NOSIG
 
LGRP - RHODES, GR
Distance from station: 1.318km
: 19/03/2019 19:20

   varies
: varies 6 km/h
: 16°C
: 11°C
: 72%
: 1017 hPa
Clouds:
Visibility: 10 km
Cloud details: 610 m
2019/03/19 17:20 LGRP 191720Z VRB03KT 9999 SCT020 16/11 Q1017 NOSIG
LGLR - LARISSA, GR
Distance from station: 182km
: 19/03/2019 18:50


: 9 km/h
: 15°C
: 10°C
: 72%
: 1016 hPa
Clouds:
Visibility: 10 km
Cloud details: 914 m
2019/03/19 16:50 LGLR 191650Z 08005KT 9999 SCT030 15/10 Q1016 RMK FEW080 BLU